sensor_id;sensor_type;location;lat;lon;timestamp;temperature;humidity
75705;DHT22;70013;44.726;37.760;2023-06-10T00:00:18;25.64;49.47
75705;DHT22;70013;44.726;37.760;2023-06-10T00:01:19;25.62;49.50
75705;DHT22;70013;44.726;37.760;2023-06-10T00:02:20;25.64;49.40
75705;DHT22;70013;44.726;37.760;2023-06-10T00:03:22;25.63;49.44
75705;DHT22;70013;44.726;37.760;2023-06-10T00:04:25;25.64;49.50
75705;DHT22;70013;44.726;37.760;2023-06-10T00:05:27;25.64;49.56
75705;DHT22;70013;44.726;37.760;2023-06-10T00:06:31;25.63;49.60
75705;DHT22;70013;44.726;37.760;2023-06-10T00:07:37;25.64;49.33
75705;DHT22;70013;44.726;37.760;2023-06-10T00:08:42;25.64;49.38
75705;DHT22;70013;44.726;37.760;2023-06-10T00:09:43;25.63;49.67
75705;DHT22;70013;44.726;37.760;2023-06-10T00:10:45;25.63;49.53
75705;DHT22;70013;44.726;37.760;2023-06-10T00:11:46;25.62;49.43
75705;DHT22;70013;44.726;37.760;2023-06-10T00:12:47;25.63;49.70
75705;DHT22;70013;44.726;37.760;2023-06-10T00:13:49;25.63;49.66
75705;DHT22;70013;44.726;37.760;2023-06-10T00:14:51;25.63;49.70
75705;DHT22;70013;44.726;37.760;2023-06-10T00:15:54;25.62;49.68
75705;DHT22;70013;44.726;37.760;2023-06-10T00:16:56;25.61;49.92
75705;DHT22;70013;44.726;37.760;2023-06-10T00:17:58;25.60;49.72
75705;DHT22;70013;44.726;37.760;2023-06-10T00:19:00;25.61;49.68
75705;DHT22;70013;44.726;37.760;2023-06-10T00:20:02;25.61;49.73
75705;DHT22;70013;44.726;37.760;2023-06-10T00:21:10;25.59;49.81
75705;DHT22;70013;44.726;37.760;2023-06-10T00:22:11;25.58;49.76
75705;DHT22;70013;44.726;37.760;2023-06-10T00:23:13;25.58;49.81
75705;DHT22;70013;44.726;37.760;2023-06-10T00:24:14;25.56;49.86
75705;DHT22;70013;44.726;37.760;2023-06-10T00:25:15;25.57;50.02
75705;DHT22;70013;44.726;37.760;2023-06-10T00:26:17;25.57;49.95
75705;DHT22;70013;44.726;37.760;2023-06-10T00:27:19;25.56;49.95
75705;DHT22;70013;44.726;37.760;2023-06-10T00:28:20;25.56;49.95
75705;DHT22;70013;44.726;37.760;2023-06-10T00:29:22;25.53;49.90
75705;DHT22;70013;44.726;37.760;2023-06-10T00:30:23;25.53;49.91
75705;DHT22;70013;44.726;37.760;2023-06-10T00:31:24;25.51;49.81
75705;DHT22;70013;44.726;37.760;2023-06-10T00:32:27;25.52;50.03
75705;DHT22;70013;44.726;37.760;2023-06-10T00:33:30;25.53;49.85
75705;DHT22;70013;44.726;37.760;2023-06-10T00:34:31;25.57;49.67
75705;DHT22;70013;44.726;37.760;2023-06-10T00:35:33;25.59;49.92
75705;DHT22;70013;44.726;37.760;2023-06-10T00:36:35;25.59;50.02
75705;DHT22;70013;44.726;37.760;2023-06-10T00:37:37;25.58;49.99
75705;DHT22;70013;44.726;37.760;2023-06-10T00:38:38;25.60;50.14
75705;DHT22;70013;44.726;37.760;2023-06-10T00:39:41;25.59;50.00
75705;DHT22;70013;44.726;37.760;2023-06-10T00:40:43;25.57;50.24
75705;DHT22;70013;44.726;37.760;2023-06-10T00:41:44;25.56;50.08
75705;DHT22;70013;44.726;37.760;2023-06-10T00:42:46;25.56;50.30
75705;DHT22;70013;44.726;37.760;2023-06-10T00:43:48;25.53;50.32
75705;DHT22;70013;44.726;37.760;2023-06-10T00:44:50;25.50;50.27
75705;DHT22;70013;44.726;37.760;2023-06-10T00:45:52;25.49;50.36
75705;DHT22;70013;44.726;37.760;2023-06-10T00:46:53;25.49;50.51
75705;DHT22;70013;44.726;37.760;2023-06-10T00:47:57;25.47;50.53
75705;DHT22;70013;44.726;37.760;2023-06-10T00:48:59;25.45;50.55
75705;DHT22;70013;44.726;37.760;2023-06-10T00:50:01;25.45;50.49
75705;DHT22;70013;44.726;37.760;2023-06-10T00:51:04;25.45;50.40
75705;DHT22;70013;44.726;37.760;2023-06-10T00:52:06;25.44;50.59
75705;DHT22;70013;44.726;37.760;2023-06-10T00:53:09;25.44;50.40
75705;DHT22;70013;44.726;37.760;2023-06-10T00:54:11;25.45;50.43
75705;DHT22;70013;44.726;37.760;2023-06-10T00:55:17;25.44;50.24
75705;DHT22;70013;44.726;37.760;2023-06-10T00:56:18;25.46;50.57
75705;DHT22;70013;44.726;37.760;2023-06-10T00:57:20;25.44;50.37
75705;DHT22;70013;44.726;37.760;2023-06-10T00:58:23;25.43;50.55
75705;DHT22;70013;44.726;37.760;2023-06-10T00:59:25;25.43;50.50
75705;DHT22;70013;44.726;37.760;2023-06-10T01:00:26;25.40;50.40
75705;DHT22;70013;44.726;37.760;2023-06-10T01:01:28;25.39;50.49
75705;DHT22;70013;44.726;37.760;2023-06-10T01:02:30;25.39;50.54
75705;DHT22;70013;44.726;37.760;2023-06-10T01:03:33;25.37;50.50
75705;DHT22;70013;44.726;37.760;2023-06-10T01:04:37;25.37;50.44
75705;DHT22;70013;44.726;37.760;2023-06-10T01:05:39;25.37;50.63
75705;DHT22;70013;44.726;37.760;2023-06-10T01:11:10;25.36;50.60
75705;DHT22;70013;44.726;37.760;2023-06-10T01:12:17;25.35;50.66
75705;DHT22;70013;44.726;37.760;2023-06-10T01:13:20;25.33;50.65
75705;DHT22;70013;44.726;37.760;2023-06-10T01:14:26;25.33;50.63
75705;DHT22;70013;44.726;37.760;2023-06-10T01:15:32;25.31;50.74
75705;DHT22;70013;44.726;37.760;2023-06-10T01:16:34;25.31;50.71
75705;DHT22;70013;44.726;37.760;2023-06-10T01:17:58;25.31;50.78
75705;DHT22;70013;44.726;37.760;2023-06-10T01:19:00;25.27;50.70
75705;DHT22;70013;44.726;37.760;2023-06-10T01:20:01;25.29;50.74
75705;DHT22;70013;44.726;37.760;2023-06-10T01:21:05;25.28;50.89
75705;DHT22;70013;44.726;37.760;2023-06-10T01:22:08;25.27;50.86
75705;DHT22;70013;44.726;37.760;2023-06-10T01:23:11;25.27;51.03
75705;DHT22;70013;44.726;37.760;2023-06-10T01:24:12;25.28;50.64
75705;DHT22;70013;44.726;37.760;2023-06-10T01:25:14;25.27;50.76
75705;DHT22;70013;44.726;37.760;2023-06-10T01:26:20;25.25;50.92
75705;DHT22;70013;44.726;37.760;2023-06-10T01:27:29;25.25;50.82
75705;DHT22;70013;44.726;37.760;2023-06-10T01:29:54;25.24;50.82
75705;DHT22;70013;44.726;37.760;2023-06-10T01:32:32;25.19;51.04
75705;DHT22;70013;44.726;37.760;2023-06-10T01:33:36;25.17;51.04
75705;DHT22;70013;44.726;37.760;2023-06-10T01:34:39;25.15;50.98
75705;DHT22;70013;44.726;37.760;2023-06-10T01:35:43;25.17;51.00
75705;DHT22;70013;44.726;37.760;2023-06-10T01:36:47;25.18;50.98
75705;DHT22;70013;44.726;37.760;2023-06-10T01:37:50;25.16;51.10
75705;DHT22;70013;44.726;37.760;2023-06-10T01:38:53;25.16;51.12
75705;DHT22;70013;44.726;37.760;2023-06-10T01:39:58;25.15;51.06
75705;DHT22;70013;44.726;37.760;2023-06-10T01:41:00;25.15;51.14
75705;DHT22;70013;44.726;37.760;2023-06-10T01:42:02;25.15;50.94
75705;DHT22;70013;44.726;37.760;2023-06-10T01:43:05;25.15;51.10
75705;DHT22;70013;44.726;37.760;2023-06-10T01:44:06;25.14;51.21
75705;DHT22;70013;44.726;37.760;2023-06-10T01:45:08;25.12;51.17
75705;DHT22;70013;44.726;37.760;2023-06-10T01:46:09;25.13;50.99
75705;DHT22;70013;44.726;37.760;2023-06-10T01:47:11;25.12;51.00
75705;DHT22;70013;44.726;37.760;2023-06-10T01:48:12;25.10;51.14
75705;DHT22;70013;44.726;37.760;2023-06-10T01:49:14;25.09;51.14
75705;DHT22;70013;44.726;37.760;2023-06-10T01:50:17;25.12;51.05
75705;DHT22;70013;44.726;37.760;2023-06-10T01:51:19;25.10;51.11
75705;DHT22;70013;44.726;37.760;2023-06-10T01:52:20;25.07;50.95
75705;DHT22;70013;44.726;37.760;2023-06-10T01:53:22;25.07;51.04
75705;DHT22;70013;44.726;37.760;2023-06-10T01:54:24;25.08;51.06
75705;DHT22;70013;44.726;37.760;2023-06-10T01:55:25;25.09;51.01
75705;DHT22;70013;44.726;37.760;2023-06-10T01:56:26;25.08;51.08
75705;DHT22;70013;44.726;37.760;2023-06-10T01:57:28;25.06;51.08
75705;DHT22;70013;44.726;37.760;2023-06-10T01:58:29;25.06;50.98
75705;DHT22;70013;44.726;37.760;2023-06-10T01:59:30;25.07;50.98
75705;DHT22;70013;44.726;37.760;2023-06-10T02:00:32;25.07;50.93
75705;DHT22;70013;44.726;37.760;2023-06-10T02:01:33;25.05;51.21
75705;DHT22;70013;44.726;37.760;2023-06-10T02:02:34;25.04;51.12
75705;DHT22;70013;44.726;37.760;2023-06-10T02:03:36;25.04;51.11
75705;DHT22;70013;44.726;37.760;2023-06-10T02:04:37;25.04;51.14
75705;DHT22;70013;44.726;37.760;2023-06-10T02:05:38;25.03;51.08
75705;DHT22;70013;44.726;37.760;2023-06-10T02:06:40;25.01;50.78
75705;DHT22;70013;44.726;37.760;2023-06-10T02:07:42;25.04;51.16
75705;DHT22;70013;44.726;37.760;2023-06-10T02:08:43;25.02;51.17
75705;DHT22;70013;44.726;37.760;2023-06-10T02:09:45;25.01;51.28
75705;DHT22;70013;44.726;37.760;2023-06-10T02:10:46;25.01;51.09
75705;DHT22;70013;44.726;37.760;2023-06-10T02:11:47;25.02;51.15
75705;DHT22;70013;44.726;37.760;2023-06-10T02:12:49;25.03;51.12
75705;DHT22;70013;44.726;37.760;2023-06-10T02:13:50;25.03;51.01
75705;DHT22;70013;44.726;37.760;2023-06-10T02:14:51;25.03;51.02
75705;DHT22;70013;44.726;37.760;2023-06-10T02:15:53;25.03;51.12
75705;DHT22;70013;44.726;37.760;2023-06-10T02:16:55;25.04;51.17
75705;DHT22;70013;44.726;37.760;2023-06-10T02:17:58;25.04;51.14
75705;DHT22;70013;44.726;37.760;2023-06-10T02:19:00;25.03;51.07
75705;DHT22;70013;44.726;37.760;2023-06-10T02:20:03;25.03;51.17
75705;DHT22;70013;44.726;37.760;2023-06-10T02:21:07;25.02;51.34
75705;DHT22;70013;44.726;37.760;2023-06-10T02:22:08;25.02;51.21
75705;DHT22;70013;44.726;37.760;2023-06-10T02:23:10;25.00;51.13
75705;DHT22;70013;44.726;37.760;2023-06-10T02:24:11;25.02;51.15
75705;DHT22;70013;44.726;37.760;2023-06-10T02:25:12;25.02;51.16
75705;DHT22;70013;44.726;37.760;2023-06-10T02:26:14;25.00;51.09
75705;DHT22;70013;44.726;37.760;2023-06-10T02:27:18;25.00;51.26
75705;DHT22;70013;44.726;37.760;2023-06-10T02:28:19;25.00;51.21
75705;DHT22;70013;44.726;37.760;2023-06-10T02:29:20;24.99;51.29
75705;DHT22;70013;44.726;37.760;2023-06-10T02:30:22;24.99;51.33
75705;DHT22;70013;44.726;37.760;2023-06-10T02:31:23;24.99;51.20
75705;DHT22;70013;44.726;37.760;2023-06-10T02:32:26;24.98;51.14
75705;DHT22;70013;44.726;37.760;2023-06-10T02:33:29;25.01;50.98
75705;DHT22;70013;44.726;37.760;2023-06-10T02:34:31;25.01;51.01
75705;DHT22;70013;44.726;37.760;2023-06-10T02:35:36;25.01;51.16
75705;DHT22;70013;44.726;37.760;2023-06-10T02:36:37;25.00;51.05
75705;DHT22;70013;44.726;37.760;2023-06-10T02:37:39;25.01;51.11
75705;DHT22;70013;44.726;37.760;2023-06-10T02:38:41;25.00;50.99
75705;DHT22;70013;44.726;37.760;2023-06-10T02:39:43;25.02;51.17
75705;DHT22;70013;44.726;37.760;2023-06-10T02:40:46;25.03;51.27
75705;DHT22;70013;44.726;37.760;2023-06-10T02:41:48;25.02;51.07
75705;DHT22;70013;44.726;37.760;2023-06-10T02:42:50;25.05;51.07
75705;DHT22;70013;44.726;37.760;2023-06-10T02:43:52;25.06;51.00
75705;DHT22;70013;44.726;37.760;2023-06-10T02:44:53;25.09;50.86
75705;DHT22;70013;44.726;37.760;2023-06-10T02:46:15;25.08;51.11
75705;DHT22;70013;44.726;37.760;2023-06-10T02:47:18;25.08;51.05
75705;DHT22;70013;44.726;37.760;2023-06-10T02:48:19;25.07;51.11
75705;DHT22;70013;44.726;37.760;2023-06-10T02:49:21;25.08;50.90
75705;DHT22;70013;44.726;37.760;2023-06-10T02:50:22;25.12;50.99
75705;DHT22;70013;44.726;37.760;2023-06-10T02:51:35;25.13;50.92
75705;DHT22;70013;44.726;37.760;2023-06-10T02:52:38;25.17;50.86
75705;DHT22;70013;44.726;37.760;2023-06-10T02:53:41;25.17;50.84
75705;DHT22;70013;44.726;37.760;2023-06-10T02:54:46;25.18;50.82
75705;DHT22;70013;44.726;37.760;2023-06-10T02:55:47;25.20;50.92
75705;DHT22;70013;44.726;37.760;2023-06-10T02:56:52;25.22;50.76
75705;DHT22;70013;44.726;37.760;2023-06-10T02:57:58;25.24;50.72
75705;DHT22;70013;44.726;37.760;2023-06-10T02:59:02;25.28;50.79
75705;DHT22;70013;44.726;37.760;2023-06-10T03:00:05;25.32;50.68
75705;DHT22;70013;44.726;37.760;2023-06-10T03:01:12;25.34;50.60
75705;DHT22;70013;44.726;37.760;2023-06-10T03:02:31;25.38;50.55
75705;DHT22;70013;44.726;37.760;2023-06-10T03:03:32;25.43;50.47
75705;DHT22;70013;44.726;37.760;2023-06-10T03:04:43;25.45;50.40
75705;DHT22;70013;44.726;37.760;2023-06-10T03:05:50;25.51;50.42
75705;DHT22;70013;44.726;37.760;2023-06-10T03:06:54;25.53;50.19
75705;DHT22;70013;44.726;37.760;2023-06-10T03:08:02;25.60;50.14
75705;DHT22;70013;44.726;37.760;2023-06-10T03:09:04;25.62;50.09
75705;DHT22;70013;44.726;37.760;2023-06-10T03:10:06;25.67;50.02
75705;DHT22;70013;44.726;37.760;2023-06-10T03:11:09;25.73;50.12
75705;DHT22;70013;44.726;37.760;2023-06-10T03:12:12;25.78;49.82
75705;DHT22;70013;44.726;37.760;2023-06-10T03:13:18;25.87;49.47
75705;DHT22;70013;44.726;37.760;2023-06-10T03:14:20;25.92;49.44
75705;DHT22;70013;44.726;37.760;2023-06-10T03:15:21;26.01;49.34
75705;DHT22;70013;44.726;37.760;2023-06-10T03:16:23;26.06;49.25
75705;DHT22;70013;44.726;37.760;2023-06-10T03:17:26;26.19;48.90
75705;DHT22;70013;44.726;37.760;2023-06-10T03:18:28;26.27;48.65
75705;DHT22;70013;44.726;37.760;2023-06-10T03:19:30;26.37;48.53
75705;DHT22;70013;44.726;37.760;2023-06-10T03:20:31;26.46;48.31
75705;DHT22;70013;44.726;37.760;2023-06-10T03:21:38;26.57;48.11
75705;DHT22;70013;44.726;37.760;2023-06-10T03:22:40;26.70;47.87
75705;DHT22;70013;44.726;37.760;2023-06-10T03:23:44;26.83;47.47
75705;DHT22;70013;44.726;37.760;2023-06-10T03:24:45;26.97;47.36
75705;DHT22;70013;44.726;37.760;2023-06-10T03:25:48;27.10;47.15
75705;DHT22;70013;44.726;37.760;2023-06-10T03:26:53;27.25;46.73
75705;DHT22;70013;44.726;37.760;2023-06-10T03:27:54;27.39;46.46
75705;DHT22;70013;44.726;37.760;2023-06-10T03:28:56;27.53;46.41
75705;DHT22;70013;44.726;37.760;2023-06-10T03:29:59;27.65;46.02
75705;DHT22;70013;44.726;37.760;2023-06-10T03:31:00;27.75;45.87
75705;DHT22;70013;44.726;37.760;2023-06-10T03:32:04;27.83;45.80
75705;DHT22;70013;44.726;37.760;2023-06-10T03:33:05;27.89;45.53
75705;DHT22;70013;44.726;37.760;2023-06-10T03:34:06;27.95;45.30
75705;DHT22;70013;44.726;37.760;2023-06-10T03:35:08;27.97;45.35
75705;DHT22;70013;44.726;37.760;2023-06-10T03:36:10;28.00;45.25
75705;DHT22;70013;44.726;37.760;2023-06-10T03:37:12;28.03;45.27
75705;DHT22;70013;44.726;37.760;2023-06-10T03:38:13;28.05;45.26
75705;DHT22;70013;44.726;37.760;2023-06-10T03:39:15;28.03;45.11
75705;DHT22;70013;44.726;37.760;2023-06-10T03:40:17;28.04;45.06
75705;DHT22;70013;44.726;37.760;2023-06-10T03:41:21;28.03;44.95
75705;DHT22;70013;44.726;37.760;2023-06-10T03:42:24;28.04;45.06
75705;DHT22;70013;44.726;37.760;2023-06-10T03:43:26;28.03;45.05
75705;DHT22;70013;44.726;37.760;2023-06-10T03:44:29;28.03;45.09
75705;DHT22;70013;44.726;37.760;2023-06-10T03:45:30;28.03;45.09
75705;DHT22;70013;44.726;37.760;2023-06-10T03:46:33;28.03;45.03
75705;DHT22;70013;44.726;37.760;2023-06-10T03:47:35;28.04;45.01
75705;DHT22;70013;44.726;37.760;2023-06-10T03:48:42;28.04;44.85
75705;DHT22;70013;44.726;37.760;2023-06-10T03:49:44;28.03;45.03
75705;DHT22;70013;44.726;37.760;2023-06-10T03:50:46;28.04;44.83
75705;DHT22;70013;44.726;37.760;2023-06-10T03:51:49;28.06;44.84
75705;DHT22;70013;44.726;37.760;2023-06-10T03:52:51;28.05;44.87
75705;DHT22;70013;44.726;37.760;2023-06-10T03:53:55;28.08;44.74
75705;DHT22;70013;44.726;37.760;2023-06-10T03:54:56;28.10;44.76
75705;DHT22;70013;44.726;37.760;2023-06-10T03:55:58;28.11;44.83
75705;DHT22;70013;44.726;37.760;2023-06-10T03:57:01;28.12;44.84
75705;DHT22;70013;44.726;37.760;2023-06-10T03:58:05;28.13;44.70
75705;DHT22;70013;44.726;37.760;2023-06-10T03:59:06;28.15;44.79
75705;DHT22;70013;44.726;37.760;2023-06-10T04:00:09;28.17;44.67
75705;DHT22;70013;44.726;37.760;2023-06-10T04:01:16;28.18;44.59
75705;DHT22;70013;44.726;37.760;2023-06-10T04:02:19;28.20;44.62
75705;DHT22;70013;44.726;37.760;2023-06-10T04:03:20;28.24;44.58
75705;DHT22;70013;44.726;37.760;2023-06-10T04:04:25;28.27;44.48
75705;DHT22;70013;44.726;37.760;2023-06-10T04:05:26;28.29;44.46
75705;DHT22;70013;44.726;37.760;2023-06-10T04:06:29;28.31;44.54
75705;DHT22;70013;44.726;37.760;2023-06-10T04:07:32;28.33;44.49
75705;DHT22;70013;44.726;37.760;2023-06-10T04:08:35;28.37;44.51
75705;DHT22;70013;44.726;37.760;2023-06-10T04:09:37;28.40;44.41
75705;DHT22;70013;44.726;37.760;2023-06-10T04:10:38;28.45;44.34
75705;DHT22;70013;44.726;37.760;2023-06-10T04:11:39;28.49;44.13
75705;DHT22;70013;44.726;37.760;2023-06-10T04:12:41;28.52;44.17
75705;DHT22;70013;44.726;37.760;2023-06-10T04:13:43;28.56;44.09
75705;DHT22;70013;44.726;37.760;2023-06-10T04:14:44;28.58;44.04
75705;DHT22;70013;44.726;37.760;2023-06-10T04:15:46;28.67;43.84
75705;DHT22;70013;44.726;37.760;2023-06-10T04:16:51;28.76;43.85
75705;DHT22;70013;44.726;37.760;2023-06-10T04:17:53;28.84;43.65
75705;DHT22;70013;44.726;37.760;2023-06-10T04:18:58;28.93;43.66
75705;DHT22;70013;44.726;37.760;2023-06-10T04:19:59;29.03;43.43
75705;DHT22;70013;44.726;37.760;2023-06-10T04:21:02;29.13;43.06
75705;DHT22;70013;44.726;37.760;2023-06-10T04:22:04;29.21;42.99
75705;DHT22;70013;44.726;37.760;2023-06-10T04:23:07;29.26;42.91
75705;DHT22;70013;44.726;37.760;2023-06-10T04:24:09;29.32;42.81
75705;DHT22;70013;44.726;37.760;2023-06-10T04:25:10;29.36;42.67
75705;DHT22;70013;44.726;37.760;2023-06-10T04:26:12;29.43;42.57
75705;DHT22;70013;44.726;37.760;2023-06-10T04:27:14;29.48;42.49
75705;DHT22;70013;44.726;37.760;2023-06-10T04:28:16;29.52;42.39
75705;DHT22;70013;44.726;37.760;2023-06-10T04:29:18;29.61;42.26
75705;DHT22;70013;44.726;37.760;2023-06-10T04:30:20;29.67;42.06
75705;DHT22;70013;44.726;37.760;2023-06-10T04:31:23;29.78;41.93
75705;DHT22;70013;44.726;37.760;2023-06-10T04:32:25;29.88;41.76
75705;DHT22;70013;44.726;37.760;2023-06-10T04:33:28;29.96;41.58
75705;DHT22;70013;44.726;37.760;2023-06-10T04:34:29;30.05;41.44
75705;DHT22;70013;44.726;37.760;2023-06-10T04:35:32;30.12;41.33
75705;DHT22;70013;44.726;37.760;2023-06-10T04:36:38;30.23;41.13
75705;DHT22;70013;44.726;37.760;2023-06-10T04:37:40;30.31;40.97
75705;DHT22;70013;44.726;37.760;2023-06-10T04:38:42;30.40;40.84
75705;DHT22;70013;44.726;37.760;2023-06-10T04:39:44;30.51;40.64
75705;DHT22;70013;44.726;37.760;2023-06-10T04:40:46;30.66;40.48
75705;DHT22;70013;44.726;37.760;2023-06-10T04:41:49;30.89;39.97
75705;DHT22;70013;44.726;37.760;2023-06-10T04:42:51;31.02;39.79
75705;DHT22;70013;44.726;37.760;2023-06-10T04:43:52;31.16;39.50
75705;DHT22;70013;44.726;37.760;2023-06-10T04:44:54;31.49;39.01
75705;DHT22;70013;44.726;37.760;2023-06-10T04:45:56;31.73;38.61
75705;DHT22;70013;44.726;37.760;2023-06-10T04:46:58;31.97;38.34
75705;DHT22;70013;44.726;37.760;2023-06-10T04:47:59;32.11;38.31
75705;DHT22;70013;44.726;37.760;2023-06-10T04:49:01;32.23;38.20
75705;DHT22;70013;44.726;37.760;2023-06-10T04:50:03;32.31;37.88
75705;DHT22;70013;44.726;37.760;2023-06-10T04:51:05;32.33;37.67
75705;DHT22;70013;44.726;37.760;2023-06-10T04:52:07;32.39;37.70
75705;DHT22;70013;44.726;37.760;2023-06-10T04:53:12;32.40;37.55
75705;DHT22;70013;44.726;37.760;2023-06-10T04:54:17;32.40;37.46
75705;DHT22;70013;44.726;37.760;2023-06-10T04:55:19;32.39;37.53
75705;DHT22;70013;44.726;37.760;2023-06-10T04:56:20;32.37;37.48
75705;DHT22;70013;44.726;37.760;2023-06-10T04:57:22;32.35;37.47
75705;DHT22;70013;44.726;37.760;2023-06-10T04:58:24;32.33;37.46
75705;DHT22;70013;44.726;37.760;2023-06-10T04:59:25;32.31;37.49
75705;DHT22;70013;44.726;37.760;2023-06-10T05:00:27;32.30;37.52
75705;DHT22;70013;44.726;37.760;2023-06-10T05:01:28;32.28;37.53
75705;DHT22;70013;44.726;37.760;2023-06-10T05:02:30;32.27;37.50
75705;DHT22;70013;44.726;37.760;2023-06-10T05:03:31;32.26;37.58
75705;DHT22;70013;44.726;37.760;2023-06-10T05:04:33;32.26;37.54
75705;DHT22;70013;44.726;37.760;2023-06-10T05:05:34;32.27;37.47
75705;DHT22;70013;44.726;37.760;2023-06-10T05:06:35;32.26;37.45
75705;DHT22;70013;44.726;37.760;2023-06-10T05:07:42;32.26;37.41
75705;DHT22;70013;44.726;37.760;2023-06-10T05:08:44;32.27;37.40
75705;DHT22;70013;44.726;37.760;2023-06-10T05:09:45;32.31;37.31
75705;DHT22;70013;44.726;37.760;2023-06-10T05:10:47;32.38;37.22
75705;DHT22;70013;44.726;37.760;2023-06-10T05:11:48;32.41;37.13
75705;DHT22;70013;44.726;37.760;2023-06-10T05:12:49;32.47;37.03
75705;DHT22;70013;44.726;37.760;2023-06-10T05:13:51;32.57;36.85
75705;DHT22;70013;44.726;37.760;2023-06-10T05:14:52;32.67;36.85
75705;DHT22;70013;44.726;37.760;2023-06-10T05:15:54;32.76;36.56
75705;DHT22;70013;44.726;37.760;2023-06-10T05:16:55;32.90;36.46
75705;DHT22;70013;44.726;37.760;2023-06-10T05:17:57;33.00;36.28
75705;DHT22;70013;44.726;37.760;2023-06-10T05:18:59;33.07;36.14
75705;DHT22;70013;44.726;37.760;2023-06-10T05:20:01;33.18;36.05
75705;DHT22;70013;44.726;37.760;2023-06-10T05:21:03;33.30;35.87
75705;DHT22;70013;44.726;37.760;2023-06-10T05:22:04;33.43;35.66
75705;DHT22;70013;44.726;37.760;2023-06-10T05:23:06;33.50;35.50
75705;DHT22;70013;44.726;37.760;2023-06-10T05:24:08;33.56;35.41
75705;DHT22;70013;44.726;37.760;2023-06-10T05:25:09;33.63;35.22
75705;DHT22;70013;44.726;37.760;2023-06-10T05:26:10;33.72;35.10
75705;DHT22;70013;44.726;37.760;2023-06-10T05:27:12;33.78;34.82
75705;DHT22;70013;44.726;37.760;2023-06-10T05:28:13;33.82;34.80
75705;DHT22;70013;44.726;37.760;2023-06-10T05:29:15;33.86;34.75
75705;DHT22;70013;44.726;37.760;2023-06-10T05:30:16;33.86;34.76
75705;DHT22;70013;44.726;37.760;2023-06-10T05:31:19;33.91;34.61
75705;DHT22;70013;44.726;37.760;2023-06-10T05:32:21;33.90;34.63
75705;DHT22;70013;44.726;37.760;2023-06-10T05:33:23;33.96;34.51
75705;DHT22;70013;44.726;37.760;2023-06-10T05:34:24;33.97;34.50
75705;DHT22;70013;44.726;37.760;2023-06-10T05:35:25;34.01;34.44
75705;DHT22;70013;44.726;37.760;2023-06-10T05:36:27;33.96;34.52
75705;DHT22;70013;44.726;37.760;2023-06-10T05:37:28;33.97;34.54
75705;DHT22;70013;44.726;37.760;2023-06-10T05:38:30;33.95;34.43
75705;DHT22;70013;44.726;37.760;2023-06-10T05:39:31;33.94;34.56
75705;DHT22;70013;44.726;37.760;2023-06-10T05:40:32;33.92;34.52
75705;DHT22;70013;44.726;37.760;2023-06-10T05:41:34;33.86;34.67
75705;DHT22;70013;44.726;37.760;2023-06-10T05:42:35;33.85;34.65
75705;DHT22;70013;44.726;37.760;2023-06-10T05:43:37;33.83;34.64
75705;DHT22;70013;44.726;37.760;2023-06-10T05:44:38;33.82;34.71
75705;DHT22;70013;44.726;37.760;2023-06-10T05:45:39;33.81;34.76
75705;DHT22;70013;44.726;37.760;2023-06-10T05:46:41;33.76;34.79
75705;DHT22;70013;44.726;37.760;2023-06-10T05:47:42;33.75;34.82
75705;DHT22;70013;44.726;37.760;2023-06-10T05:48:44;33.67;34.95
75705;DHT22;70013;44.726;37.760;2023-06-10T05:49:45;33.62;35.04
75705;DHT22;70013;44.726;37.760;2023-06-10T05:50:49;33.57;35.14
75705;DHT22;70013;44.726;37.760;2023-06-10T05:51:50;33.57;35.13
75705;DHT22;70013;44.726;37.760;2023-06-10T05:52:53;33.49;35.24
75705;DHT22;70013;44.726;37.760;2023-06-10T05:53:55;33.44;35.34
75705;DHT22;70013;44.726;37.760;2023-06-10T05:54:57;33.38;35.48
75705;DHT22;70013;44.726;37.760;2023-06-10T05:56:00;33.38;35.47
75705;DHT22;70013;44.726;37.760;2023-06-10T05:57:03;33.34;35.53
75705;DHT22;70013;44.726;37.760;2023-06-10T05:58:04;33.34;35.51
75705;DHT22;70013;44.726;37.760;2023-06-10T05:59:06;33.30;35.60
75705;DHT22;70013;44.726;37.760;2023-06-10T06:00:08;33.31;35.51
75705;DHT22;70013;44.726;37.760;2023-06-10T06:01:16;33.23;35.60
75705;DHT22;70013;44.726;37.760;2023-06-10T06:02:18;33.19;35.65
75705;DHT22;70013;44.726;37.760;2023-06-10T06:03:19;33.16;35.76
75705;DHT22;70013;44.726;37.760;2023-06-10T06:04:20;33.12;35.81
75705;DHT22;70013;44.726;37.760;2023-06-10T06:05:22;33.12;35.81
75705;DHT22;70013;44.726;37.760;2023-06-10T06:06:23;33.11;35.82
75705;DHT22;70013;44.726;37.760;2023-06-10T06:07:26;33.11;35.82
75705;DHT22;70013;44.726;37.760;2023-06-10T06:08:27;33.11;35.82
75705;DHT22;70013;44.726;37.760;2023-06-10T06:09:28;33.08;35.82
75705;DHT22;70013;44.726;37.760;2023-06-10T06:10:30;33.08;35.84
75705;DHT22;70013;44.726;37.760;2023-06-10T06:11:33;33.07;35.87
75705;DHT22;70013;44.726;37.760;2023-06-10T06:12:35;33.07;35.88
75705;DHT22;70013;44.726;37.760;2023-06-10T06:13:36;33.08;35.88
75705;DHT22;70013;44.726;37.760;2023-06-10T06:14:38;33.06;35.94
75705;DHT22;70013;44.726;37.760;2023-06-10T06:15:42;33.06;35.90
75705;DHT22;70013;44.726;37.760;2023-06-10T06:16:44;33.05;35.95
75705;DHT22;70013;44.726;37.760;2023-06-10T06:17:45;33.05;35.95
75705;DHT22;70013;44.726;37.760;2023-06-10T06:18:47;33.07;35.95
75705;DHT22;70013;44.726;37.760;2023-06-10T06:19:48;33.12;35.88
75705;DHT22;70013;44.726;37.760;2023-06-10T06:20:50;33.15;35.73
75705;DHT22;70013;44.726;37.760;2023-06-10T06:21:51;33.17;35.72
75705;DHT22;70013;44.726;37.760;2023-06-10T06:22:53;33.21;35.71
75705;DHT22;70013;44.726;37.760;2023-06-10T06:23:54;33.23;35.73
75705;DHT22;70013;44.726;37.760;2023-06-10T06:24:55;33.26;35.68
75705;DHT22;70013;44.726;37.760;2023-06-10T06:25:57;33.32;35.50
75705;DHT22;70013;44.726;37.760;2023-06-10T06:26:58;33.38;35.51
75705;DHT22;70013;44.726;37.760;2023-06-10T06:27:59;33.41;35.36
75705;DHT22;70013;44.726;37.760;2023-06-10T06:29:01;33.47;35.33
75705;DHT22;70013;44.726;37.760;2023-06-10T06:30:03;33.57;35.10
75705;DHT22;70013;44.726;37.760;2023-06-10T06:31:04;33.62;35.00
75705;DHT22;70013;44.726;37.760;2023-06-10T06:32:06;33.72;34.83
75705;DHT22;70013;44.726;37.760;2023-06-10T06:33:07;33.79;34.71
75705;DHT22;70013;44.726;37.760;2023-06-10T06:34:09;33.88;34.53
75705;DHT22;70013;44.726;37.760;2023-06-10T06:35:10;33.94;34.46